sensor_id;sensor_type;location;lat;lon;timestamp;P1;durP1;ratioP1;P2;durP2;ratioP2
53714;SDS011;39608;55.630;37.864;2023-10-13T00:01:27;3.70;;;0.73;;
53714;SDS011;39608;55.630;37.864;2023-10-13T00:06:30;3.53;;;1.05;;
53714;SDS011;39608;55.630;37.864;2023-10-13T00:11:34;3.63;;;0.85;;
53714;SDS011;39608;55.630;37.864;2023-10-13T00:16:36;1.92;;;0.80;;
53714;SDS011;39608;55.630;37.864;2023-10-13T00:21:50;3.67;;;1.67;;
53714;SDS011;39608;55.630;37.864;2023-10-13T00:26:57;6.28;;;0.80;;
53714;SDS011;39608;55.630;37.864;2023-10-13T00:32:02;1.92;;;0.98;;
53714;SDS011;39608;55.630;37.864;2023-10-13T00:37:12;3.13;;;0.77;;
53714;SDS011;39608;55.630;37.864;2023-10-13T00:42:19;3.53;;;1.00;;
53714;SDS011;39608;55.630;37.864;2023-10-13T00:47:31;9.90;;;1.30;;
53714;SDS011;39608;55.630;37.864;2023-10-13T00:52:50;3.92;;;1.02;;
53714;SDS011;39608;55.630;37.864;2023-10-13T00:57:58;1.90;;;0.82;;
53714;SDS011;39608;55.630;37.864;2023-10-13T01:03:03;2.00;;;0.52;;
53714;SDS011;39608;55.630;37.864;2023-10-13T01:08:07;3.80;;;1.20;;
53714;SDS011;39608;55.630;37.864;2023-10-13T01:13:15;3.97;;;0.70;;
53714;SDS011;39608;55.630;37.864;2023-10-13T01:18:17;2.00;;;0.70;;
53714;SDS011;39608;55.630;37.864;2023-10-13T01:23:22;4.18;;;0.60;;
53714;SDS011;39608;55.630;37.864;2023-10-13T01:28:28;5.20;;;0.90;;
53714;SDS011;39608;55.630;37.864;2023-10-13T01:33:44;1.70;;;1.08;;
53714;SDS011;39608;55.630;37.864;2023-10-13T01:38:48;7.45;;;1.10;;
53714;SDS011;39608;55.630;37.864;2023-10-13T01:43:52;2.58;;;0.65;;
53714;SDS011;39608;55.630;37.864;2023-10-13T01:48:58;4.82;;;0.90;;
53714;SDS011;39608;55.630;37.864;2023-10-13T01:54:02;0.98;;;0.32;;
53714;SDS011;39608;55.630;37.864;2023-10-13T01:59:04;2.63;;;0.63;;
53714;SDS011;39608;55.630;37.864;2023-10-13T02:04:09;5.75;;;1.27;;
53714;SDS011;39608;55.630;37.864;2023-10-13T02:09:13;7.30;;;1.20;;
53714;SDS011;39608;55.630;37.864;2023-10-13T02:14:25;1.65;;;0.65;;
53714;SDS011;39608;55.630;37.864;2023-10-13T02:19:30;4.18;;;0.50;;
53714;SDS011;39608;55.630;37.864;2023-10-13T02:25:02;4.07;;;0.90;;
53714;SDS011;39608;55.630;37.864;2023-10-13T02:30:07;4.18;;;0.93;;
53714;SDS011;39608;55.630;37.864;2023-10-13T02:35:14;3.28;;;0.70;;
53714;SDS011;39608;55.630;37.864;2023-10-13T02:40:21;2.88;;;0.70;;
53714;SDS011;39608;55.630;37.864;2023-10-13T02:45:24;3.07;;;0.90;;
53714;SDS011;39608;55.630;37.864;2023-10-13T02:50:26;3.50;;;0.80;;
53714;SDS011;39608;55.630;37.864;2023-10-13T02:55:34;4.20;;;1.07;;
53714;SDS011;39608;55.630;37.864;2023-10-13T03:00:54;2.72;;;0.63;;
53714;SDS011;39608;55.630;37.864;2023-10-13T03:05:58;2.20;;;0.85;;
53714;SDS011;39608;55.630;37.864;2023-10-13T03:11:09;6.25;;;1.60;;
53714;SDS011;39608;55.630;37.864;2023-10-13T03:16:12;3.80;;;0.82;;
53714;SDS011;39608;55.630;37.864;2023-10-13T03:21:16;7.18;;;1.00;;
53714;SDS011;39608;55.630;37.864;2023-10-13T03:26:30;5.82;;;0.75;;
53714;SDS011;39608;55.630;37.864;2023-10-13T03:31:36;3.95;;;1.42;;
53714;SDS011;39608;55.630;37.864;2023-10-13T03:36:39;2.95;;;0.75;;
53714;SDS011;39608;55.630;37.864;2023-10-13T03:42:01;3.85;;;1.17;;
53714;SDS011;39608;55.630;37.864;2023-10-13T03:47:05;10.35;;;1.02;;
53714;SDS011;39608;55.630;37.864;2023-10-13T03:52:18;10.23;;;1.33;;
53714;SDS011;39608;55.630;37.864;2023-10-13T03:57:24;7.32;;;1.15;;
53714;SDS011;39608;55.630;37.864;2023-10-13T04:02:27;4.05;;;0.90;;
53714;SDS011;39608;55.630;37.864;2023-10-13T04:07:30;7.28;;;1.65;;
53714;SDS011;39608;55.630;37.864;2023-10-13T04:13:03;4.20;;;0.73;;
53714;SDS011;39608;55.630;37.864;2023-10-13T04:18:36;2.90;;;1.02;;
53714;SDS011;39608;55.630;37.864;2023-10-13T04:24:04;3.60;;;0.52;;
53714;SDS011;39608;55.630;37.864;2023-10-13T04:29:30;1.17;;;0.82;;
53714;SDS011;39608;55.630;37.864;2023-10-13T04:34:51;4.70;;;1.17;;
53714;SDS011;39608;55.630;37.864;2023-10-13T04:39:58;6.40;;;1.00;;
53714;SDS011;39608;55.630;37.864;2023-10-13T04:45:12;2.15;;;1.05;;
53714;SDS011;39608;55.630;37.864;2023-10-13T04:50:41;3.58;;;1.10;;
53714;SDS011;39608;55.630;37.864;2023-10-13T04:55:48;11.25;;;1.70;;
53714;SDS011;39608;55.630;37.864;2023-10-13T05:01:09;3.60;;;0.80;;
53714;SDS011;39608;55.630;37.864;2023-10-13T05:06:38;4.35;;;1.00;;
53714;SDS011;39608;55.630;37.864;2023-10-13T05:11:54;4.10;;;1.35;;
53714;SDS011;39608;55.630;37.864;2023-10-13T05:17:15;6.07;;;1.30;;
53714;SDS011;39608;55.630;37.864;2023-10-13T05:22:35;3.28;;;0.93;;
53714;SDS011;39608;55.630;37.864;2023-10-13T05:27:54;4.57;;;1.10;;
53714;SDS011;39608;55.630;37.864;2023-10-13T05:33:23;5.53;;;1.42;;
53714;SDS011;39608;55.630;37.864;2023-10-13T05:38:42;1.70;;;0.80;;
53714;SDS011;39608;55.630;37.864;2023-10-13T05:44:02;11.70;;;1.52;;
53714;SDS011;39608;55.630;37.864;2023-10-13T05:49:31;2.78;;;1.02;;
53714;SDS011;39608;55.630;37.864;2023-10-13T06:00:06;6.65;;;1.08;;
53714;SDS011;39608;55.630;37.864;2023-10-13T06:05:27;4.78;;;1.20;;
53714;SDS011;39608;55.630;37.864;2023-10-13T06:10:48;4.18;;;1.17;;
53714;SDS011;39608;55.630;37.864;2023-10-13T06:16:15;2.80;;;0.85;;
53714;SDS011;39608;55.630;37.864;2023-10-13T06:21:40;3.55;;;1.08;;
53714;SDS011;39608;55.630;37.864;2023-10-13T06:27:02;7.47;;;1.25;;
53714;SDS011;39608;55.630;37.864;2023-10-13T06:32:20;8.30;;;1.10;;
53714;SDS011;39608;55.630;37.864;2023-10-13T06:37:28;5.20;;;1.40;;
53714;SDS011;39608;55.630;37.864;2023-10-13T06:42:32;1.50;;;0.40;;
53714;SDS011;39608;55.630;37.864;2023-10-13T06:47:38;2.70;;;0.88;;
53714;SDS011;39608;55.630;37.864;2023-10-13T06:52:44;1.92;;;0.80;;
53714;SDS011;39608;55.630;37.864;2023-10-13T06:57:48;8.85;;;1.38;;
53714;SDS011;39608;55.630;37.864;2023-10-13T07:02:51;3.35;;;0.90;;
53714;SDS011;39608;55.630;37.864;2023-10-13T07:08:07;5.18;;;1.17;;
53714;SDS011;39608;55.630;37.864;2023-10-13T07:13:14;5.13;;;1.17;;
53714;SDS011;39608;55.630;37.864;2023-10-13T07:18:17;4.90;;;0.88;;
53714;SDS011;39608;55.630;37.864;2023-10-13T07:23:24;5.18;;;0.88;;
53714;SDS011;39608;55.630;37.864;2023-10-13T07:28:27;6.43;;;0.65;;
53714;SDS011;39608;55.630;37.864;2023-10-13T07:33:31;1.90;;;0.57;;
53714;SDS011;39608;55.630;37.864;2023-10-13T07:38:39;0.60;;;0.50;;
53714;SDS011;39608;55.630;37.864;2023-10-13T07:43:43;4.50;;;0.50;;
53714;SDS011;39608;55.630;37.864;2023-10-13T07:48:46;0.47;;;0.47;;
53714;SDS011;39608;55.630;37.864;2023-10-13T07:53:55;3.78;;;0.70;;
53714;SDS011;39608;55.630;37.864;2023-10-13T07:58:58;2.33;;;0.95;;
53714;SDS011;39608;55.630;37.864;2023-10-13T08:04:01;2.72;;;1.13;;
53714;SDS011;39608;55.630;37.864;2023-10-13T08:09:13;7.65;;;1.20;;
53714;SDS011;39608;55.630;37.864;2023-10-13T08:14:43;1.27;;;0.70;;
53714;SDS011;39608;55.630;37.864;2023-10-13T08:19:45;6.95;;;1.10;;
53714;SDS011;39608;55.630;37.864;2023-10-13T08:24:48;1.95;;;0.90;;
53714;SDS011;39608;55.630;37.864;2023-10-13T08:30:17;7.28;;;0.73;;
53714;SDS011;39608;55.630;37.864;2023-10-13T08:35:30;0.75;;;0.50;;
53714;SDS011;39608;55.630;37.864;2023-10-13T08:40:44;1.08;;;0.77;;
53714;SDS011;39608;55.630;37.864;2023-10-13T08:46:07;3.85;;;1.10;;
53714;SDS011;39608;55.630;37.864;2023-10-13T08:51:25;4.68;;;1.40;;
53714;SDS011;39608;55.630;37.864;2023-10-13T08:56:44;15.23;;;1.50;;
53714;SDS011;39608;55.630;37.864;2023-10-13T09:01:56;3.38;;;1.30;;
53714;SDS011;39608;55.630;37.864;2023-10-13T09:07:16;6.70;;;1.63;;
53714;SDS011;39608;55.630;37.864;2023-10-13T09:12:22;3.95;;;1.38;;
53714;SDS011;39608;55.630;37.864;2023-10-13T09:17:41;1.77;;;0.80;;
53714;SDS011;39608;55.630;37.864;2023-10-13T09:22:48;3.33;;;1.10;;
53714;SDS011;39608;55.630;37.864;2023-10-13T09:27:54;10.53;;;1.17;;
53714;SDS011;39608;55.630;37.864;2023-10-13T09:33:07;4.55;;;1.10;;
53714;SDS011;39608;55.630;37.864;2023-10-13T09:38:09;2.05;;;1.02;;
53714;SDS011;39608;55.630;37.864;2023-10-13T09:43:13;1.52;;;0.85;;
53714;SDS011;39608;55.630;37.864;2023-10-13T09:48:20;12.35;;;1.10;;
53714;SDS011;39608;55.630;37.864;2023-10-13T09:53:30;3.40;;;1.17;;
53714;SDS011;39608;55.630;37.864;2023-10-13T09:58:34;1.65;;;0.80;;
53714;SDS011;39608;55.630;37.864;2023-10-13T10:03:48;5.15;;;1.40;;
53714;SDS011;39608;55.630;37.864;2023-10-13T10:09:08;7.32;;;1.13;;
53714;SDS011;39608;55.630;37.864;2023-10-13T10:14:15;4.07;;;1.20;;
53714;SDS011;39608;55.630;37.864;2023-10-13T10:24:24;3.22;;;1.13;;
53714;SDS011;39608;55.630;37.864;2023-10-13T10:29:30;0.50;;;0.45;;
53714;SDS011;39608;55.630;37.864;2023-10-13T10:34:35;7.28;;;1.13;;
53714;SDS011;39608;55.630;37.864;2023-10-13T10:39:37;7.15;;;1.48;;
53714;SDS011;39608;55.630;37.864;2023-10-13T10:44:46;1.25;;;0.60;;
53714;SDS011;39608;55.630;37.864;2023-10-13T10:49:57;4.05;;;0.88;;
53714;SDS011;39608;55.630;37.864;2023-10-13T10:55:00;4.50;;;0.77;;
53714;SDS011;39608;55.630;37.864;2023-10-13T11:00:07;0.68;;;0.40;;
53714;SDS011;39608;55.630;37.864;2023-10-13T11:05:22;4.80;;;0.68;;
53714;SDS011;39608;55.630;37.864;2023-10-13T11:10:32;3.35;;;0.98;;
53714;SDS011;39608;55.630;37.864;2023-10-13T11:15:42;3.20;;;0.80;;
53714;SDS011;39608;55.630;37.864;2023-10-13T11:20:47;2.80;;;0.50;;
53714;SDS011;39608;55.630;37.864;2023-10-13T11:25:57;4.10;;;1.08;;
53714;SDS011;39608;55.630;37.864;2023-10-13T11:31:08;3.35;;;0.82;;
53714;SDS011;39608;55.630;37.864;2023-10-13T11:36:15;3.20;;;0.73;;
53714;SDS011;39608;55.630;37.864;2023-10-13T11:41:23;0.50;;;0.50;;
53714;SDS011;39608;55.630;37.864;2023-10-13T11:46:34;4.57;;;0.70;;
53714;SDS011;39608;55.630;37.864;2023-10-13T11:51:55;3.17;;;1.00;;
53714;SDS011;39608;55.630;37.864;2023-10-13T11:57:08;1.63;;;0.60;;
53714;SDS011;39608;55.630;37.864;2023-10-13T12:02:11;4.43;;;0.82;;
53714;SDS011;39608;55.630;37.864;2023-10-13T12:07:32;2.60;;;0.50;;
53714;SDS011;39608;55.630;37.864;2023-10-13T12:12:45;0.73;;;0.50;;
53714;SDS011;39608;55.630;37.864;2023-10-13T12:17:53;0.73;;;0.57;;
53714;SDS011;39608;55.630;37.864;2023-10-13T12:23:00;3.15;;;0.50;;
53714;SDS011;39608;55.630;37.864;2023-10-13T12:28:16;1.38;;;0.70;;
53714;SDS011;39608;55.630;37.864;2023-10-13T12:33:22;2.58;;;0.95;;
53714;SDS011;39608;55.630;37.864;2023-10-13T12:38:30;1.08;;;0.75;;
53714;SDS011;39608;55.630;37.864;2023-10-13T12:43:51;2.22;;;0.73;;
53714;SDS011;39608;55.630;37.864;2023-10-13T12:49:14;9.13;;;0.77;;
53714;SDS011;39608;55.630;37.864;2023-10-13T12:54:41;2.28;;;0.70;;
53714;SDS011;39608;55.630;37.864;2023-10-13T12:59:47;2.42;;;0.88;;
53714;SDS011;39608;55.630;37.864;2023-10-13T13:04:49;4.32;;;1.50;;
53714;SDS011;39608;55.630;37.864;2023-10-13T13:10:01;5.03;;;1.30;;
53714;SDS011;39608;55.630;37.864;2023-10-13T13:15:05;11.75;;;2.00;;
53714;SDS011;39608;55.630;37.864;2023-10-13T13:20:09;5.47;;;1.70;;
53714;SDS011;39608;55.630;37.864;2023-10-13T13:25:28;4.43;;;2.00;;
53714;SDS011;39608;55.630;37.864;2023-10-13T13:30:33;5.68;;;1.55;;
53714;SDS011;39608;55.630;37.864;2023-10-13T13:35:35;2.47;;;1.00;;
53714;SDS011;39608;55.630;37.864;2023-10-13T13:40:39;5.78;;;1.25;;
53714;SDS011;39608;55.630;37.864;2023-10-13T13:45:49;2.83;;;0.90;;
53714;SDS011;39608;55.630;37.864;2023-10-13T13:51:02;3.35;;;1.10;;
53714;SDS011;39608;55.630;37.864;2023-10-13T13:56:16;1.65;;;0.68;;
53714;SDS011;39608;55.630;37.864;2023-10-13T14:01:18;2.20;;;0.80;;
53714;SDS011;39608;55.630;37.864;2023-10-13T14:06:22;2.65;;;1.10;;
53714;SDS011;39608;55.630;37.864;2023-10-13T14:11:29;2.55;;;1.10;;
53714;SDS011;39608;55.630;37.864;2023-10-13T14:16:50;4.72;;;1.42;;
53714;SDS011;39608;55.630;37.864;2023-10-13T14:21:53;7.78;;;1.20;;
53714;SDS011;39608;55.630;37.864;2023-10-13T14:26:57;3.72;;;1.25;;
53714;SDS011;39608;55.630;37.864;2023-10-13T14:32:07;4.65;;;1.60;;
53714;SDS011;39608;55.630;37.864;2023-10-13T14:37:14;7.80;;;1.13;;
53714;SDS011;39608;55.630;37.864;2023-10-13T14:42:28;2.70;;;1.27;;
53714;SDS011;39608;55.630;37.864;2023-10-13T14:47:35;3.53;;;1.17;;
53714;SDS011;39608;55.630;37.864;2023-10-13T14:52:42;2.83;;;0.90;;
53714;SDS011;39608;55.630;37.864;2023-10-13T14:57:47;9.10;;;1.55;;
53714;SDS011;39608;55.630;37.864;2023-10-13T15:02:51;1.73;;;1.08;;
53714;SDS011;39608;55.630;37.864;2023-10-13T15:07:54;4.95;;;1.38;;
53714;SDS011;39608;55.630;37.864;2023-10-13T15:12:58;3.47;;;1.17;;
53714;SDS011;39608;55.630;37.864;2023-10-13T15:18:03;4.23;;;1.83;;
53714;SDS011;39608;55.630;37.864;2023-10-13T15:23:06;11.93;;;1.65;;
53714;SDS011;39608;55.630;37.864;2023-10-13T15:28:25;4.90;;;1.55;;
53714;SDS011;39608;55.630;37.864;2023-10-13T15:38:33;8.68;;;2.45;;
53714;SDS011;39608;55.630;37.864;2023-10-13T15:43:39;9.50;;;3.33;;
53714;SDS011;39608;55.630;37.864;2023-10-13T15:48:49;9.88;;;3.67;;
53714;SDS011;39608;55.630;37.864;2023-10-13T15:53:52;8.77;;;2.95;;
53714;SDS011;39608;55.630;37.864;2023-10-13T15:58:57;4.72;;;2.38;;
53714;SDS011;39608;55.630;37.864;2023-10-13T16:04:01;5.43;;;2.22;;
53714;SDS011;39608;55.630;37.864;2023-10-13T16:09:11;8.50;;;2.35;;
53714;SDS011;39608;55.630;37.864;2023-10-13T16:14:17;7.60;;;3.00;;
53714;SDS011;39608;55.630;37.864;2023-10-13T16:19:20;6.10;;;2.20;;
53714;SDS011;39608;55.630;37.864;2023-10-13T16:24:23;10.10;;;3.35;;
53714;SDS011;39608;55.630;37.864;2023-10-13T16:29:27;6.95;;;2.58;;
53714;SDS011;39608;55.630;37.864;2023-10-13T16:34:31;7.20;;;2.45;;
53714;SDS011;39608;55.630;37.864;2023-10-13T16:39:34;5.20;;;2.45;;
53714;SDS011;39608;55.630;37.864;2023-10-13T16:44:41;3.80;;;1.73;;
53714;SDS011;39608;55.630;37.864;2023-10-13T16:49:44;11.68;;;2.30;;
53714;SDS011;39608;55.630;37.864;2023-10-13T16:54:46;6.70;;;2.03;;
53714;SDS011;39608;55.630;37.864;2023-10-13T16:59:50;2.10;;;1.15;;
53714;SDS011;39608;55.630;37.864;2023-10-13T17:04:52;4.65;;;1.95;;
53714;SDS011;39608;55.630;37.864;2023-10-13T17:09:57;6.60;;;1.80;;
53714;SDS011;39608;55.630;37.864;2023-10-13T17:15:02;5.25;;;2.20;;
53714;SDS011;39608;55.630;37.864;2023-10-13T17:20:14;7.13;;;1.90;;
53714;SDS011;39608;55.630;37.864;2023-10-13T17:25:19;5.47;;;2.25;;
53714;SDS011;39608;55.630;37.864;2023-10-13T17:30:26;9.45;;;3.42;;
53714;SDS011;39608;55.630;37.864;2023-10-13T17:35:28;5.50;;;2.20;;
53714;SDS011;39608;55.630;37.864;2023-10-13T17:40:33;3.35;;;1.80;;
53714;SDS011;39608;55.630;37.864;2023-10-13T17:45:37;7.38;;;1.40;;
53714;SDS011;39608;55.630;37.864;2023-10-13T17:50:39;9.75;;;2.35;;
53714;SDS011;39608;55.630;37.864;2023-10-13T17:55:41;4.78;;;2.40;;
53714;SDS011;39608;55.630;37.864;2023-10-13T18:00:46;3.63;;;1.95;;
53714;SDS011;39608;55.630;37.864;2023-10-13T18:05:48;7.65;;;2.10;;
53714;SDS011;39608;55.630;37.864;2023-10-13T18:10:51;7.93;;;2.17;;
53714;SDS011;39608;55.630;37.864;2023-10-13T18:15:55;3.78;;;2.05;;
53714;SDS011;39608;55.630;37.864;2023-10-13T18:21:01;7.32;;;2.38;;
53714;SDS011;39608;55.630;37.864;2023-10-13T18:26:03;3.97;;;2.05;;
53714;SDS011;39608;55.630;37.864;2023-10-13T18:31:07;3.17;;;2.05;;
53714;SDS011;39608;55.630;37.864;2023-10-13T18:36:13;11.70;;;3.03;;
53714;SDS011;39608;55.630;37.864;2023-10-13T18:41:16;8.75;;;1.98;;
53714;SDS011;39608;55.630;37.864;2023-10-13T18:46:20;3.20;;;1.88;;
53714;SDS011;39608;55.630;37.864;2023-10-13T18:51:25;6.85;;;2.00;;
53714;SDS011;39608;55.630;37.864;2023-10-13T18:56:27;5.78;;;2.28;;
53714;SDS011;39608;55.630;37.864;2023-10-13T19:01:32;4.57;;;1.98;;
53714;SDS011;39608;55.630;37.864;2023-10-13T19:06:35;7.28;;;2.30;;
53714;SDS011;39608;55.630;37.864;2023-10-13T19:11:37;11.65;;;2.40;;
53714;SDS011;39608;55.630;37.864;2023-10-13T19:16:42;3.83;;;2.20;;
53714;SDS011;39608;55.630;37.864;2023-10-13T19:21:47;6.43;;;2.20;;
53714;SDS011;39608;55.630;37.864;2023-10-13T19:26:49;10.25;;;2.35;;
53714;SDS011;39608;55.630;37.864;2023-10-13T19:31:54;5.00;;;2.30;;
53714;SDS011;39608;55.630;37.864;2023-10-13T19:36:57;6.88;;;2.60;;
53714;SDS011;39608;55.630;37.864;2023-10-13T19:42:04;8.63;;;3.10;;
53714;SDS011;39608;55.630;37.864;2023-10-13T19:47:11;9.45;;;3.63;;
53714;SDS011;39608;55.630;37.864;2023-10-13T19:52:14;8.37;;;3.60;;
53714;SDS011;39608;55.630;37.864;2023-10-13T19:57:17;17.20;;;5.47;;
53714;SDS011;39608;55.630;37.864;2023-10-13T20:02:21;12.25;;;5.32;;
53714;SDS011;39608;55.630;37.864;2023-10-13T20:07:23;14.73;;;5.85;;
53714;SDS011;39608;55.630;37.864;2023-10-13T20:12:26;23.90;;;7.13;;
53714;SDS011;39608;55.630;37.864;2023-10-13T20:17:30;16.75;;;7.05;;
53714;SDS011;39608;55.630;37.864;2023-10-13T20:22:32;16.25;;;5.47;;
53714;SDS011;39608;55.630;37.864;2023-10-13T20:27:35;10.98;;;3.75;;
53714;SDS011;39608;55.630;37.864;2023-10-13T20:32:39;11.30;;;3.63;;
53714;SDS011;39608;55.630;37.864;2023-10-13T20:37:41;9.30;;;2.85;;
53714;SDS011;39608;55.630;37.864;2023-10-13T20:42:44;10.60;;;3.67;;
53714;SDS011;39608;55.630;37.864;2023-10-13T20:47:50;8.00;;;2.92;;
53714;SDS011;39608;55.630;37.864;2023-10-13T20:52:53;8.38;;;2.80;;
53714;SDS011;39608;55.630;37.864;2023-10-13T20:57:55;11.75;;;3.47;;
53714;SDS011;39608;55.630;37.864;2023-10-13T21:02:59;6.00;;;2.75;;
53714;SDS011;39608;55.630;37.864;2023-10-13T21:08:01;16.65;;;3.00;;
53714;SDS011;39608;55.630;37.864;2023-10-13T21:13:03;5.72;;;2.58;;
53714;SDS011;39608;55.630;37.864;2023-10-13T21:18:07;7.13;;;2.40;;
53714;SDS011;39608;55.630;37.864;2023-10-13T21:23:09;7.50;;;3.17;;
53714;SDS011;39608;55.630;37.864;2023-10-13T21:28:12;6.78;;;2.60;;
53714;SDS011;39608;55.630;37.864;2023-10-13T21:33:16;9.85;;;3.55;;
53714;SDS011;39608;55.630;37.864;2023-10-13T21:38:18;16.48;;;5.20;;
53714;SDS011;39608;55.630;37.864;2023-10-13T21:43:20;8.52;;;4.38;;
53714;SDS011;39608;55.630;37.864;2023-10-13T21:48:27;13.10;;;4.30;;
53714;SDS011;39608;55.630;37.864;2023-10-13T21:53:29;21.50;;;3.85;;
53714;SDS011;39608;55.630;37.864;2023-10-13T21:58:31;12.70;;;3.90;;
53714;SDS011;39608;55.630;37.864;2023-10-13T22:03:34;6.80;;;3.55;;
53714;SDS011;39608;55.630;37.864;2023-10-13T22:08:43;7.47;;;3.67;;
53714;SDS011;39608;55.630;37.864;2023-10-13T22:13:46;12.05;;;3.95;;
53714;SDS011;39608;55.630;37.864;2023-10-13T22:18:50;12.60;;;3.10;;
53714;SDS011;39608;55.630;37.864;2023-10-13T22:23:55;7.20;;;2.78;;
53714;SDS011;39608;55.630;37.864;2023-10-13T22:29:00;6.75;;;3.22;;
53714;SDS011;39608;55.630;37.864;2023-10-13T22:34:03;10.05;;;2.85;;
53714;SDS011;39608;55.630;37.864;2023-10-13T22:39:05;10.20;;;3.80;;
53714;SDS011;39608;55.630;37.864;2023-10-13T22:44:15;16.23;;;3.65;;
53714;SDS011;39608;55.630;37.864;2023-10-13T22:49:20;7.88;;;3.58;;
53714;SDS011;39608;55.630;37.864;2023-10-13T22:54:25;14.38;;;3.25;;
53714;SDS011;39608;55.630;37.864;2023-10-13T22:59:31;7.30;;;2.70;;
53714;SDS011;39608;55.630;37.864;2023-10-13T23:04:34;7.07;;;2.72;;
53714;SDS011;39608;55.630;37.864;2023-10-13T23:09:36;8.55;;;2.88;;
53714;SDS011;39608;55.630;37.864;2023-10-13T23:14:47;6.22;;;2.63;;
53714;SDS011;39608;55.630;37.864;2023-10-13T23:19:52;5.30;;;2.28;;
53714;SDS011;39608;55.630;37.864;2023-10-13T23:24:54;9.73;;;2.60;;
53714;SDS011;39608;55.630;37.864;2023-10-13T23:29:56;7.35;;;2.92;;
53714;SDS011;39608;55.630;37.864;2023-10-13T23:35:00;11.15;;;2.55;;
53714;SDS011;39608;55.630;37.864;2023-10-13T23:40:03;9.00;;;2.28;;
53714;SDS011;39608;55.630;37.864;2023-10-13T23:45:13;6.30;;;2.40;;
53714;SDS011;39608;55.630;37.864;2023-10-13T23:50:23;7.10;;;2.80;;
53714;SDS011;39608;55.630;37.864;2023-10-13T23:55:28;13.88;;;3.03;;
